This is the latest recevied weather packets stored in our database for station/object WMKA. If no packets are shown the sender has not sent any weather packets the latest 10 day(s).
| Time | Temp. | Humidity | Pressure | Rain* | Wind** | Luminosity | Snow |
|---|---|---|---|---|---|---|---|
| 1777518587 | 31.67° C | 66% | 1010 hPa | - | - | - | - |
| 1777514987 | 30.56° C | 70% | 1010 hPa | - | - | - | - |
| 1777511387 | 28.89° C | 74% | 1009 hPa | - | - | - | - |
| 1777507796 | 25.56° C | 88% | 1008 hPa | - | - | - | - |
| 1777504187 | 25° C | 88% | 1008 hPa | - | - | - | - |
| 1777500587 | 25° C | 88% | 1008 hPa | - | - | - | - |
| 1777496990 | 25° C | 88% | 1008 hPa | - | - | - | - |
| 1777493394 | 25° C | 88% | 1008 hPa | - | - | - | - |
| 1777489786 | 25.56° C | 83% | 1008 hPa | - | - | - | - |
| 1777486186 | 25.56° C | 83% | 1009 hPa | - | - | - | - |
| 1777482586 | 25.56° C | 83% | 1010 hPa | - | - | - | - |
| 1777478986 | 25.56° C | 88% | 1010 hPa | - | - | - | - |
| 1777475393 | 26.67° C | 74% | 1010 hPa | - | - | - | - |
| 1777471786 | 26.67° C | 78% | 1009 hPa | - | - | - | - |
| 1777468186 | 25.56° C | 83% | 1009 hPa | - | - | - | - |
| 1777464586 | 26.67° C | 83% | 1008 hPa | - | - | - | - |
| 1777460986 | 27.78° C | 74% | 1006 hPa | - | - | - | - |
| 1777457394 | 30.56° C | 62% | 1006 hPa | - | - | - | - |
| 1777453785 | 32.78° C | 70% | 1005 hPa | - | - | - | - |
| 1777450185 | 35° C | 63% | 1006 hPa | - | - | - | - |
| 1777446585 | 35° C | 59% | 1007 hPa | - | - | - | - |
| 1777442991 | 35° C | 63% | 1008 hPa | - | - | - | - |
| 1777439385 | 32.78° C | 66% | 1009 hPa | - | - | - | - |
| 1777435785 | 32.78° C | 66% | 1010 hPa | - | - | - | - |
| 1777432185 | 30.56° C | 74% | 1010 hPa | - | - | - | - |
* Rain since midnight (hover to see other rain measurements)
** Current wind speed in m/s (hover to see current wind gust speed)